Aviation Digital Data Service (ADDS)

Output produced by TAFs form (0153 UTC 21 December 2014)
found at http://aviationweather.gov/adds/tafs/
 
KLND 202327Z 2100/2124 28007KT P6SM SCT100 BKN200 
     FM210600 28011KT P6SM SCT060 BKN100 WS020/25038KT